Terminal Aerodrome Forecast
Issued by NWS

Current Version | Previous Version | Text Only | Print | Product List | Glossary Off
Versions: 1 2 3 4 5 6 7 8 9 10 11 12 13 14 15 16 17 18 19 20 21 22 23 24

101
FTUS41 KRLX 111551 AAA
TAFCKB
TAF AMD
KCKB 111551Z 1116/1212 28010KT P6SM SCT025 BKN060
      TEMPO 1116/1118 5SM -SHSN BKN025
     FM120400 27003KT P6SM SCT070
     FM121000 VRB03KT P6SM BKN080=

USA.gov is the U.S. government's official web portal to all federal, state and local government web resources and services.